Time;durP1;ratioP1;P1;durP2;ratioP2;P2;SDS_P1;SDS_P2;PMS_P1;PMS_P2;Temp;Humidity;BMP_temperature;BMP_pressure;BME280_temperature;BME280_humidity;BME280_pressure;Samples;Min_cycle;Max_cycle;Signal;HPM_P1;HPM_P2
2023/06/26 00:00:13;;;;;;;;;;;23.50;99.90;;;;;;5136707;27;19908;-44
2023/06/26 00:02:38;;;;;;;;;;;23.40;99.90;;;;;;5136453;27;20385;-44
2023/06/26 00:05:04;;;;;;;;;;;23.40;99.90;;;;;;5135701;27;19994;-46
2023/06/26 00:07:30;;;;;;;;;;;23.40;99.90;;;;;;5136468;27;19911;-44
2023/06/26 00:09:56;;;;;;;;;;;23.40;99.90;;;;;;5136436;27;19915;-46
2023/06/26 00:12:22;;;;;;;;;;;23.30;99.90;;;;;;5135253;27;20002;-43
2023/06/26 00:14:47;;;;;;;;;;;23.30;99.90;;;;;;5136614;27;19950;-43
2023/06/26 00:17:13;;;;;;;;;;;23.20;99.90;;;;;;5136459;27;20361;-44
2023/06/26 00:19:38;;;;;;;;;;;23.20;99.90;;;;;;5118812;27;19951;-43
2023/06/26 00:22:04;;;;;;;;;;;23.30;99.90;;;;;;5115656;28;20259;-45
2023/06/26 00:24:29;;;;;;;;;;;23.30;99.90;;;;;;5115636;28;19919;-45
2023/06/26 00:26:55;;;;;;;;;;;23.20;99.90;;;;;;5114836;28;19908;-44
2023/06/26 00:29:20;;;;;;;;;;;23.20;99.90;;;;;;5121068;27;19908;-43
2023/06/26 00:31:46;;;;;;;;;;;23.20;99.90;;;;;;5136113;27;19986;-45
2023/06/26 00:34:11;;;;;;;;;;;23.20;99.90;;;;;;5135025;27;20034;-44
2023/06/26 00:36:36;;;;;;;;;;;23.20;99.90;;;;;;5135971;27;19951;-43
2023/06/26 00:39:03;;;;;;;;;;;23.20;99.90;;;;;;5135408;27;20029;-43
2023/06/26 00:41:29;;;;;;;;;;;23.10;99.90;;;;;;5134917;27;19919;-44
2023/06/26 00:43:54;;;;;;;;;;;23.10;99.90;;;;;;5135630;27;19918;-45
2023/06/26 00:46:20;;;;;;;;;;;23.20;99.90;;;;;;5135336;27;19908;-43
2023/06/26 00:48:46;;;;;;;;;;;23.10;99.90;;;;;;5134757;27;19996;-44
2023/06/26 00:51:11;;;;;;;;;;;23.20;99.90;;;;;;5135719;27;20548;-43
2023/06/26 00:53:37;;;;;;;;;;;23.10;99.90;;;;;;5134334;27;19923;-45
2023/06/26 00:56:03;;;;;;;;;;;23.10;99.90;;;;;;5135123;27;19911;-44
2023/06/26 00:58:28;;;;;;;;;;;23.10;99.90;;;;;;5134995;27;20362;-43
2023/06/26 01:00:54;;;;;;;;;;;23.00;99.90;;;;;;5134610;27;19907;-44
2023/06/26 01:03:20;;;;;;;;;;;23.00;99.90;;;;;;5135292;27;20014;-44
2023/06/26 01:05:49;;;;;;;;;;;23.00;99.90;;;;;;5126905;27;20473;-44
2023/06/26 01:08:15;;;;;;;;;;;22.90;99.90;;;;;;5114081;28;20003;-44
2023/06/26 01:10:40;;;;;;;;;;;23.00;99.90;;;;;;5116060;27;19999;-44
2023/06/26 01:13:06;;;;;;;;;;;22.90;99.90;;;;;;5126736;27;20022;-44
2023/06/26 01:15:31;;;;;;;;;;;22.90;99.90;;;;;;5119572;27;20357;-44
2023/06/26 01:18:03;;;;;;;;;;;22.80;99.90;;;;;;5125445;27;19912;-44
2023/06/26 01:20:34;;;;;;;;;;;22.80;99.90;;;;;;5134648;27;20349;-44
2023/06/26 01:23:05;;;;;;;;;;;22.80;99.90;;;;;;5134373;27;20530;-45
2023/06/26 01:25:49;;;;;;;;;;;22.70;99.90;;;;;;5135079;27;19907;-45
2023/06/26 01:28:15;;;;;;;;;;;22.70;99.90;;;;;;5133033;27;20010;-45
2023/06/26 01:30:42;;;;;;;;;;;22.70;99.90;;;;;;5113829;28;19995;-44
2023/06/26 01:33:07;;;;;;;;;;;22.60;99.90;;;;;;5114228;28;19961;-44
2023/06/26 01:35:34;;;;;;;;;;;22.60;99.90;;;;;;5114201;28;19916;-44
2023/06/26 01:38:15;;;;;;;;;;;22.60;99.90;;;;;;5130474;27;19942;-44
2023/06/26 01:40:41;;;;;;;;;;;22.60;99.90;;;;;;5134751;27;19914;-45
2023/06/26 01:43:10;;;;;;;;;;;22.60;99.90;;;;;;5133795;27;19998;-45
2023/06/26 01:45:36;;;;;;;;;;;22.60;99.90;;;;;;5134584;27;19907;-44
2023/06/26 01:48:04;;;;;;;;;;;22.50;99.90;;;;;;5134703;27;19907;-45
2023/06/26 01:50:31;;;;;;;;;;;22.50;99.90;;;;;;5133619;27;19911;-43
2023/06/26 01:52:56;;;;;;;;;;;22.50;99.90;;;;;;5127621;27;19939;-44
2023/06/26 01:55:25;;;;;;;;;;;22.40;99.90;;;;;;5134429;27;20365;-43
2023/06/26 01:57:52;;;;;;;;;;;22.40;99.90;;;;;;5132406;27;20281;-44
2023/06/26 02:00:18;;;;;;;;;;;22.40;99.90;;;;;;5133867;27;19911;-44
2023/06/26 02:02:44;;;;;;;;;;;22.40;99.90;;;;;;5134118;27;19911;-43
2023/06/26 02:05:09;;;;;;;;;;;22.40;99.90;;;;;;5133482;27;20384;-43
2023/06/26 02:07:35;;;;;;;;;;;22.30;99.90;;;;;;5134308;27;20282;-44
2023/06/26 02:10:01;;;;;;;;;;;22.30;99.90;;;;;;5134210;27;19932;-44
2023/06/26 02:12:26;;;;;;;;;;;22.30;99.90;;;;;;5133114;27;20045;-45
2023/06/26 02:14:52;;;;;;;;;;;22.30;99.90;;;;;;5134300;27;19911;-43
2023/06/26 02:17:17;;;;;;;;;;;22.30;99.90;;;;;;5134096;27;20005;-44
2023/06/26 02:19:47;;;;;;;;;;;22.30;99.90;;;;;;5132940;27;19915;-44
2023/06/26 02:22:13;;;;;;;;;;;22.30;99.90;;;;;;5134005;27;19960;-45
2023/06/26 02:24:38;;;;;;;;;;;22.20;99.90;;;;;;5133826;27;19922;-43
2023/06/26 02:27:04;;;;;;;;;;;22.20;99.90;;;;;;5113658;27;19912;-43
2023/06/26 02:29:29;;;;;;;;;;;22.10;99.90;;;;;;5113287;28;20332;-44
2023/06/26 02:31:55;;;;;;;;;;;22.10;99.90;;;;;;5113298;28;19953;-46
2023/06/26 02:34:20;;;;;;;;;;;22.10;99.90;;;;;;5112565;28;19963;-44
2023/06/26 02:36:46;;;;;;;;;;;22.00;99.90;;;;;;5113144;28;19907;-43
2023/06/26 02:39:11;;;;;;;;;;;22.00;99.90;;;;;;5112181;28;20350;-44
2023/06/26 02:41:37;;;;;;;;;;;22.00;99.90;;;;;;5113154;28;19931;-44
2023/06/26 02:44:02;;;;;;;;;;;22.00;99.90;;;;;;5113270;28;19907;-44
2023/06/26 02:46:28;;;;;;;;;;;22.00;99.90;;;;;;5113315;28;19916;-43
2023/06/26 02:48:53;;;;;;;;;;;22.00;99.90;;;;;;5112997;28;19908;-44
2023/06/26 02:51:19;;;;;;;;;;;21.90;99.90;;;;;;5113000;28;20032;-43
2023/06/26 02:53:44;;;;;;;;;;;21.90;99.90;;;;;;5112159;28;20014;-44
2023/06/26 02:56:10;;;;;;;;;;;21.80;99.90;;;;;;5131782;28;19918;-45
2023/06/26 02:58:35;;;;;;;;;;;21.80;99.90;;;;;;5133485;28;20293;-45
2023/06/26 03:01:01;;;;;;;;;;;21.80;99.90;;;;;;5132485;28;20428;-44
2023/06/26 03:03:26;;;;;;;;;;;21.70;99.90;;;;;;5133108;28;19919;-44
2023/06/26 03:05:52;;;;;;;;;;;21.70;99.90;;;;;;5132966;28;20389;-43
2023/06/26 03:08:17;;;;;;;;;;;21.60;99.90;;;;;;5134175;27;19911;-43
2023/06/26 03:10:43;;;;;;;;;;;21.60;99.90;;;;;;5137652;27;20349;-45
2023/06/26 03:13:08;;;;;;;;;;;21.50;99.90;;;;;;5137269;27;19927;-42
2023/06/26 03:15:33;;;;;;;;;;;21.50;99.90;;;;;;5136775;27;19908;-44
2023/06/26 03:17:59;;;;;;;;;;;21.50;99.90;;;;;;5130853;27;20386;-44
2023/06/26 03:20:25;;;;;;;;;;;21.40;99.90;;;;;;5129797;27;19918;-43
2023/06/26 03:22:50;;;;;;;;;;;21.40;99.90;;;;;;5136369;27;19912;-43
2023/06/26 03:25:16;;;;;;;;;;;21.40;99.90;;;;;;5137133;27;19915;-43
2023/06/26 03:27:41;;;;;;;;;;;21.40;99.90;;;;;;5137137;27;19958;-43
2023/06/26 03:30:07;;;;;;;;;;;21.30;99.90;;;;;;5136084;27;20369;-43
2023/06/26 03:32:32;;;;;;;;;;;21.30;99.90;;;;;;5137104;27;19912;-43
2023/06/26 03:34:58;;;;;;;;;;;21.30;99.90;;;;;;5137305;27;19907;-46
2023/06/26 03:37:23;;;;;;;;;;;21.40;99.90;;;;;;5136110;27;19991;-42
2023/06/26 03:39:49;;;;;;;;;;;21.40;99.90;;;;;;5136783;27;19925;-44
2023/06/26 03:42:14;;;;;;;;;;;21.40;99.90;;;;;;5137146;27;19907;-44
2023/06/26 03:44:40;;;;;;;;;;;21.40;99.90;;;;;;5136237;27;19934;-44
2023/06/26 03:47:05;;;;;;;;;;;21.50;99.90;;;;;;5136831;27;20426;-44
2023/06/26 03:49:33;;;;;;;;;;;21.50;99.90;;;;;;5135306;27;21560;-43
2023/06/26 03:51:58;;;;;;;;;;;21.50;99.90;;;;;;5136622;27;20010;-43
2023/06/26 03:54:24;;;;;;;;;;;21.50;99.90;;;;;;5129273;27;20452;-46
2023/06/26 03:56:49;;;;;;;;;;;21.50;99.90;;;;;;5134368;27;20010;-43
2023/06/26 03:59:15;;;;;;;;;;;21.50;99.90;;;;;;5128091;27;19914;-43
2023/06/26 04:01:40;;;;;;;;;;;21.60;99.90;;;;;;5116036;28;19911;-43
2023/06/26 04:04:05;;;;;;;;;;;21.60;99.90;;;;;;5115431;28;20282;-44
2023/06/26 04:06:31;;;;;;;;;;;21.60;99.90;;;;;;5115958;28;19908;-43
2023/06/26 04:08:57;;;;;;;;;;;21.60;99.90;;;;;;5116000;28;20301;-43
2023/06/26 04:11:22;;;;;;;;;;;21.60;99.90;;;;;;5119980;27;20337;-44
2023/06/26 04:13:48;;;;;;;;;;;21.50;99.90;;;;;;5135489;27;19919;-46
2023/06/26 04:16:13;;;;;;;;;;;21.50;99.90;;;;;;5136397;27;19912;-43
2023/06/26 04:18:39;;;;;;;;;;;21.50;99.90;;;;;;5135459;27;20044;-42
2023/06/26 04:21:12;;;;;;;;;;;21.50;99.90;;;;;;5135692;27;19915;-43
2023/06/26 04:23:38;;;;;;;;;;;21.60;99.90;;;;;;5136245;27;20006;-44
2023/06/26 04:26:04;;;;;;;;;;;21.60;99.90;;;;;;5131823;27;19951;-43
2023/06/26 04:28:31;;;;;;;;;;;21.60;99.90;;;;;;5136044;27;19918;-42
2023/06/26 04:30:56;;;;;;;;;;;21.70;99.90;;;;;;5136145;27;19930;-44
2023/06/26 04:33:23;;;;;;;;;;;21.60;99.90;;;;;;5134996;27;20369;-42
2023/06/26 04:35:48;;;;;;;;;;;21.60;99.90;;;;;;5131618;27;19911;-44
2023/06/26 04:38:15;;;;;;;;;;;21.60;99.90;;;;;;5135673;27;20271;-44
2023/06/26 04:40:40;;;;;;;;;;;21.60;99.90;;;;;;5135109;27;19915;-43
2023/06/26 04:43:06;;;;;;;;;;;21.60;99.90;;;;;;5135949;27;20273;-44
2023/06/26 04:45:31;;;;;;;;;;;21.60;99.90;;;;;;5136066;27;19907;-42
2023/06/26 04:47:57;;;;;;;;;;;21.60;99.90;;;;;;5134985;27;19998;-44
2023/06/26 04:50:23;;;;;;;;;;;21.60;99.90;;;;;;5135629;27;19907;-44
2023/06/26 04:52:48;;;;;;;;;;;21.60;99.90;;;;;;5134767;27;19975;-42
2023/06/26 04:55:14;;;;;;;;;;;21.60;99.90;;;;;;5131666;27;19908;-42
2023/06/26 04:57:39;;;;;;;;;;;21.60;99.90;;;;;;5115096;28;19918;-43
2023/06/26 05:00:10;;;;;;;;;;;21.70;99.90;;;;;;5114331;28;19955;-42
2023/06/26 05:02:36;;;;;;;;;;;21.70;99.90;;;;;;5114923;28;19919;-45
2023/06/26 05:05:02;;;;;;;;;;;21.80;99.90;;;;;;5114855;28;19908;-46
2023/06/26 05:07:27;;;;;;;;;;;21.90;99.90;;;;;;5113991;28;20010;-43
2023/06/26 05:09:53;;;;;;;;;;;22.00;99.90;;;;;;5114887;28;20011;-43
2023/06/26 05:12:18;;;;;;;;;;;22.10;99.90;;;;;;5114536;28;19908;-42
2023/06/26 05:14:44;;;;;;;;;;;22.10;99.90;;;;;;5114007;28;19907;-43
2023/06/26 05:17:09;;;;;;;;;;;22.10;99.90;;;;;;5114788;28;19908;-43
2023/06/26 05:19:35;;;;;;;;;;;22.10;99.90;;;;;;5114551;28;20012;-43
2023/06/26 05:22:03;;;;;;;;;;;22.10;99.90;;;;;;5113743;28;19943;-42
2023/06/26 05:24:29;;;;;;;;;;;22.10;99.90;;;;;;5114653;28;19954;-43
2023/06/26 05:26:55;;;;;;;;;;;22.00;99.90;;;;;;5114510;28;19978;-44
2023/06/26 05:29:21;;;;;;;;;;;22.00;99.90;;;;;;5122855;27;20377;-44
2023/06/26 05:31:47;;;;;;;;;;;22.00;99.90;;;;;;5133795;27;19915;-45
2023/06/26 05:34:13;;;;;;;;;;;22.00;99.90;;;;;;5134282;27;19954;-44
2023/06/26 05:36:40;;;;;;;;;;;21.90;99.90;;;;;;5133524;27;19921;-44
2023/06/26 05:39:05;;;;;;;;;;;21.90;99.90;;;;;;5134375;27;19924;-42
2023/06/26 05:41:31;;;;;;;;;;;21.80;99.90;;;;;;5134415;27;19912;-43
2023/06/26 05:43:56;;;;;;;;;;;21.80;99.90;;;;;;5133834;27;20304;-44
2023/06/26 05:46:22;;;;;;;;;;;21.70;99.90;;;;;;5134645;27;20014;-45
2023/06/26 05:48:48;;;;;;;;;;;21.70;99.90;;;;;;5133732;27;20442;-43
2023/06/26 05:51:13;;;;;;;;;;;21.70;99.90;;;;;;5133725;27;20120;-43
2023/06/26 05:53:39;;;;;;;;;;;21.80;99.90;;;;;;5133899;27;19926;-44
2023/06/26 05:56:04;;;;;;;;;;;21.70;99.90;;;;;;5133591;27;19930;-43
2023/06/26 05:58:30;;;;;;;;;;;21.70;99.90;;;;;;5134271;27;20300;-46
2023/06/26 06:00:55;;;;;;;;;;;21.80;99.90;;;;;;5134309;27;20285;-43
2023/06/26 06:03:21;;;;;;;;;;;21.70;99.90;;;;;;5133316;27;19915;-44
2023/06/26 06:05:46;;;;;;;;;;;21.70;99.90;;;;;;5134328;27;19967;-44
2023/06/26 06:08:12;;;;;;;;;;;21.70;99.90;;;;;;5134246;27;20277;-42
2023/06/26 06:10:37;;;;;;;;;;;21.70;99.90;;;;;;5132305;27;19962;-44
2023/06/26 06:13:03;;;;;;;;;;;21.60;99.90;;;;;;5119136;27;19950;-44
2023/06/26 06:15:29;;;;;;;;;;;21.50;99.90;;;;;;5133369;27;19915;-43
2023/06/26 06:17:54;;;;;;;;;;;21.40;99.90;;;;;;5130285;27;19912;-43
2023/06/26 06:20:20;;;;;;;;;;;21.30;99.90;;;;;;5114795;28;19912;-43
2023/06/26 06:22:45;;;;;;;;;;;21.30;99.90;;;;;;5134111;27;20153;-43
2023/06/26 06:25:11;;;;;;;;;;;21.30;99.90;;;;;;5133047;27;20010;-42
2023/06/26 06:27:36;;;;;;;;;;;21.30;99.90;;;;;;5126818;27;19918;-43
2023/06/26 06:30:02;;;;;;;;;;;21.20;99.90;;;;;;5126904;27;19911;-44
2023/06/26 06:32:28;;;;;;;;;;;21.20;99.90;;;;;;5125749;27;19938;-45
2023/06/26 06:34:53;;;;;;;;;;;21.30;99.90;;;;;;5130910;27;20262;-44
2023/06/26 06:37:19;;;;;;;;;;;21.40;99.90;;;;;;5132699;27;19911;-44
2023/06/26 06:39:44;;;;;;;;;;;21.30;99.90;;;;;;5131840;27;19919;-43
2023/06/26 06:42:10;;;;;;;;;;;21.40;99.90;;;;;;5124673;27;19923;-43
2023/06/26 06:44:35;;;;;;;;;;;21.40;99.90;;;;;;5132157;27;20389;-44
2023/06/26 06:47:01;;;;;;;;;;;21.40;99.90;;;;;;5132225;27;19908;-44
2023/06/26 06:49:26;;;;;;;;;;;21.40;99.90;;;;;;5128518;28;19912;-45
2023/06/26 06:51:52;;;;;;;;;;;21.30;99.90;;;;;;5126590;28;19912;-43
2023/06/26 06:54:17;;;;;;;;;;;21.30;99.90;;;;;;5124378;28;20153;-48
2023/06/26 06:56:43;;;;;;;;;;;21.30;99.90;;;;;;5127647;28;19915;-45
2023/06/26 06:59:08;;;;;;;;;;;21.30;99.90;;;;;;5127740;28;20365;-45
2023/06/26 07:01:34;;;;;;;;;;;21.30;99.90;;;;;;5132203;28;19950;-43
2023/06/26 07:03:59;;;;;;;;;;;21.40;99.90;;;;;;5133152;28;19907;-45
2023/06/26 07:06:25;;;;;;;;;;;21.50;99.90;;;;;;5131320;28;19918;-44
2023/06/26 07:08:51;;;;;;;;;;;21.60;99.90;;;;;;5133016;28;20352;-45
2023/06/26 07:11:16;;;;;;;;;;;21.80;99.90;;;;;;5132527;28;20364;-44
2023/06/26 07:13:42;;;;;;;;;;;21.90;99.90;;;;;;5132238;28;20002;-44
2023/06/26 07:16:11;;;;;;;;;;;22.00;99.90;;;;;;5132940;28;19934;-43
2023/06/26 07:18:37;;;;;;;;;;;22.10;99.90;;;;;;5133116;28;20377;-43
2023/06/26 07:21:02;;;;;;;;;;;22.10;99.90;;;;;;5132631;28;19907;-43
2023/06/26 07:23:28;;;;;;;;;;;22.20;99.90;;;;;;5133212;28;19979;-46
2023/06/26 07:25:54;;;;;;;;;;;22.10;99.90;;;;;;5131156;28;19919;-42
2023/06/26 07:28:19;;;;;;;;;;;21.90;99.90;;;;;;5117899;28;20406;-44
2023/06/26 07:30:45;;;;;;;;;;;21.90;99.90;;;;;;5115043;28;19908;-45
2023/06/26 07:33:10;;;;;;;;;;;21.90;99.90;;;;;;5125083;28;20281;-45
2023/06/26 07:35:35;;;;;;;;;;;22.00;99.90;;;;;;5120787;28;19915;-43
2023/06/26 07:38:01;;;;;;;;;;;22.00;99.90;;;;;;5127969;28;20354;-45
2023/06/26 07:40:27;;;;;;;;;;;22.10;99.90;;;;;;5131757;28;19912;-44
2023/06/26 07:42:53;;;;;;;;;;;22.10;99.90;;;;;;5131505;28;19937;-44
2023/06/26 07:45:19;;;;;;;;;;;22.10;99.90;;;;;;5132618;28;20006;-44
2023/06/26 07:47:45;;;;;;;;;;;22.10;99.90;;;;;;5130869;28;20006;-44
2023/06/26 07:50:10;;;;;;;;;;;22.20;99.90;;;;;;5128917;28;19926;-42
2023/06/26 07:52:36;;;;;;;;;;;22.20;99.90;;;;;;5122056;28;19977;-43
2023/06/26 07:55:03;;;;;;;;;;;22.20;99.90;;;;;;5128257;27;19957;-43
2023/06/26 07:57:28;;;;;;;;;;;22.30;99.90;;;;;;5124313;27;20265;-43
2023/06/26 07:59:55;;;;;;;;;;;22.30;99.90;;;;;;5116210;28;19990;-45
2023/06/26 08:02:21;;;;;;;;;;;22.40;99.90;;;;;;5118872;27;19991;-42
2023/06/26 08:04:46;;;;;;;;;;;22.40;99.90;;;;;;5135880;27;20354;-45
2023/06/26 08:07:13;;;;;;;;;;;22.50;99.90;;;;;;5136342;27;20001;-43
2023/06/26 08:09:39;;;;;;;;;;;22.50;99.90;;;;;;5135710;27;19915;-43
2023/06/26 08:12:05;;;;;;;;;;;22.60;99.90;;;;;;5125040;27;19912;-47
2023/06/26 08:14:31;;;;;;;;;;;22.70;99.90;;;;;;5130057;27;19928;-46
2023/06/26 08:16:57;;;;;;;;;;;22.90;99.90;;;;;;5126498;27;20237;-44
2023/06/26 08:19:22;;;;;;;;;;;23.00;99.90;;;;;;5116525;27;19922;-45
2023/06/26 08:21:48;;;;;;;;;;;23.10;99.70;;;;;;5132181;27;19911;-42
2023/06/26 08:24:18;;;;;;;;;;;23.00;99.90;;;;;;5131030;27;19911;-43
2023/06/26 08:26:47;;;;;;;;;;;23.20;99.90;;;;;;5132932;27;19912;-44
2023/06/26 08:29:12;;;;;;;;;;;23.30;99.90;;;;;;5134925;27;19911;-45
2023/06/26 08:31:39;;;;;;;;;;;23.20;99.80;;;;;;5135307;27;20375;-43
2023/06/26 08:34:04;;;;;;;;;;;23.00;99.50;;;;;;5136085;27;20269;-44
2023/06/26 08:36:30;;;;;;;;;;;23.00;99.90;;;;;;5130721;27;19912;-43
2023/06/26 08:38:56;;;;;;;;;;;23.00;99.70;;;;;;5120978;27;19920;-44
2023/06/26 08:41:21;;;;;;;;;;;23.00;99.70;;;;;;5117888;27;19919;-44
2023/06/26 08:43:47;;;;;;;;;;;23.00;99.30;;;;;;5126569;27;19912;-45
2023/06/26 08:46:14;;;;;;;;;;;22.90;99.90;;;;;;5134778;27;19907;-44
2023/06/26 08:48:41;;;;;;;;;;;22.90;99.90;;;;;;5134994;27;20353;-44
2023/06/26 08:51:11;;;;;;;;;;;23.00;99.60;;;;;;5132440;27;19908;-45
2023/06/26 08:53:43;;;;;;;;;;;23.10;99.90;;;;;;5133315;27;19919;-44
2023/06/26 08:56:08;;;;;;;;;;;23.10;99.80;;;;;;5133441;27;19915;-45
2023/06/26 08:58:36;;;;;;;;;;;22.90;99.50;;;;;;5136104;27;19907;-43
2023/06/26 09:01:02;;;;;;;;;;;23.00;99.90;;;;;;5135427;27;19915;-44
2023/06/26 09:03:27;;;;;;;;;;;23.20;99.90;;;;;;5130578;27;19912;-44
2023/06/26 09:05:53;;;;;;;;;;;23.20;99.30;;;;;;5114866;28;19923;-43
2023/06/26 09:08:18;;;;;;;;;;;23.10;98.80;;;;;;5121713;27;19908;-46
2023/06/26 09:10:44;;;;;;;;;;;23.00;99.70;;;;;;5134415;27;19911;-43
2023/06/26 09:13:10;;;;;;;;;;;23.10;99.90;;;;;;5134413;27;20794;-43
2023/06/26 09:15:39;;;;;;;;;;;23.30;99.50;;;;;;5134974;27;19961;-43
2023/06/26 09:18:05;;;;;;;;;;;23.40;99.00;;;;;;5135377;27;19932;-46
2023/06/26 09:20:32;;;;;;;;;;;23.50;99.60;;;;;;5134561;27;19907;-46
2023/06/26 09:22:58;;;;;;;;;;;23.60;99.60;;;;;;5135318;27;19915;-46
2023/06/26 09:25:24;;;;;;;;;;;23.70;99.50;;;;;;5135403;27;19955;-47
2023/06/26 09:27:49;;;;;;;;;;;23.70;98.00;;;;;;5135124;27;19908;-45
2023/06/26 09:30:16;;;;;;;;;;;23.80;99.10;;;;;;5135616;27;19915;-45
2023/06/26 09:32:42;;;;;;;;;;;23.90;98.40;;;;;;5135480;27;19916;-43
2023/06/26 09:35:07;;;;;;;;;;;23.80;98.40;;;;;;5134910;27;20238;-45
2023/06/26 09:37:34;;;;;;;;;;;23.80;98.70;;;;;;5135430;27;19958;-42
2023/06/26 09:40:00;;;;;;;;;;;23.50;98.20;;;;;;5135208;27;20031;-44
2023/06/26 09:42:25;;;;;;;;;;;23.20;98.60;;;;;;5134729;27;20410;-46
2023/06/26 09:44:51;;;;;;;;;;;23.30;98.80;;;;;;5135457;27;19918;-42
2023/06/26 09:47:18;;;;;;;;;;;23.50;98.50;;;;;;5135569;27;19914;-42
2023/06/26 09:49:43;;;;;;;;;;;23.60;98.00;;;;;;5134567;27;19951;-47
2023/06/26 09:52:09;;;;;;;;;;;23.40;98.40;;;;;;5134956;27;19962;-43
2023/06/26 09:54:35;;;;;;;;;;;23.10;98.70;;;;;;5134924;27;19915;-44
2023/06/26 09:57:21;;;;;;;;;;;22.90;99.00;;;;;;5134776;27;19933;-44
2023/06/26 09:59:47;;;;;;;;;;;22.80;99.00;;;;;;5134588;27;19907;-44
2023/06/26 10:02:12;;;;;;;;;;;22.80;99.60;;;;;;5134462;27;19953;-43
2023/06/26 10:04:38;;;;;;;;;;;22.90;99.40;;;;;;5134883;27;19912;-43
2023/06/26 10:07:09;;;;;;;;;;;23.20;98.80;;;;;;5134842;27;19914;-44
2023/06/26 10:09:36;;;;;;;;;;;23.40;98.70;;;;;;5134348;27;19914;-44
2023/06/26 10:12:06;;;;;;;;;;;23.40;97.90;;;;;;5134994;27;20003;-45
2023/06/26 10:14:33;;;;;;;;;;;23.10;97.60;;;;;;5127484;27;19945;-47
2023/06/26 10:17:01;;;;;;;;;;;23.10;97.70;;;;;;5121608;27;20346;-42
2023/06/26 10:19:27;;;;;;;;;;;23.20;97.40;;;;;;5118541;27;19919;-43
2023/06/26 10:21:53;;;;;;;;;;;23.60;97.90;;;;;;5133410;27;19911;-42
2023/06/26 10:24:19;;;;;;;;;;;23.60;97.30;;;;;;5120672;27;19912;-43
2023/06/26 10:26:46;;;;;;;;;;;23.60;97.70;;;;;;5114663;27;19919;-42
2023/06/26 10:29:12;;;;;;;;;;;23.70;96.70;;;;;;5128438;27;20009;-43
2023/06/26 10:31:39;;;;;;;;;;;23.80;96.40;;;;;;5120110;27;19919;-45
2023/06/26 10:34:05;;;;;;;;;;;24.00;96.30;;;;;;5106019;27;20290;-43
2023/06/26 10:36:31;;;;;;;;;;;24.20;97.10;;;;;;5130000;27;19911;-44
2023/06/26 10:39:07;;;;;;;;;;;24.40;94.80;;;;;;5131522;27;19923;-42
2023/06/26 10:41:42;;;;;;;;;;;24.50;94.60;;;;;;5133707;27;20361;-43
2023/06/26 10:44:16;;;;;;;;;;;24.60;94.00;;;;;;5119868;27;20002;-49
2023/06/26 10:46:48;;;;;;;;;;;24.50;93.60;;;;;;5130341;27;20357;-43
2023/06/26 10:49:13;;;;;;;;;;;24.20;94.20;;;;;;5133297;27;19912;-43
2023/06/26 10:51:45;;;;;;;;;;;24.00;94.40;;;;;;5132212;28;19926;-41
2023/06/26 10:54:13;;;;;;;;;;;23.90;93.80;;;;;;5132678;28;19923;-43
2023/06/26 10:56:46;;;;;;;;;;;24.00;94.80;;;;;;5133486;28;19908;-44
2023/06/26 10:59:21;;;;;;;;;;;24.00;95.10;;;;;;5132785;28;19942;-46
2023/06/26 11:01:54;;;;;;;;;;;24.00;94.40;;;;;;5133653;28;19911;-43
2023/06/26 11:04:35;;;;;;;;;;;24.10;93.80;;;;;;5133648;28;19953;-43
2023/06/26 11:07:14;;;;;;;;;;;24.30;94.00;;;;;;5132955;28;19907;-43
2023/06/26 11:09:53;;;;;;;;;;;24.30;92.80;;;;;;5133422;28;19911;-41
2023/06/26 11:12:33;;;;;;;;;;;24.10;91.40;;;;;;5133602;28;19907;-43
2023/06/26 11:15:00;;;;;;;;;;;24.20;93.30;;;;;;5133579;28;19998;-45
2023/06/26 11:17:26;;;;;;;;;;;24.30;91.60;;;;;;5133333;28;19960;-43
2023/06/26 11:19:52;;;;;;;;;;;24.20;86.30;;;;;;5132654;28;20280;-45
2023/06/26 11:22:18;;;;;;;;;;;24.20;86.50;;;;;;5132857;28;19912;-42
2023/06/26 11:24:44;;;;;;;;;;;23.90;85.30;;;;;;5133398;28;20400;-42
2023/06/26 11:27:10;;;;;;;;;;;23.60;87.30;;;;;;5132597;28;19907;-42
2023/06/26 11:29:36;;;;;;;;;;;23.60;89.10;;;;;;5135815;27;19908;-43
2023/06/26 11:32:02;;;;;;;;;;;23.80;89.00;;;;;;5137277;27;19923;-45
2023/06/26 11:34:29;;;;;;;;;;;23.70;88.50;;;;;;5136369;27;19916;-44
2023/06/26 11:36:56;;;;;;;;;;;23.60;80.30;;;;;;5137124;27;19911;-43
2023/06/26 11:39:21;;;;;;;;;;;23.80;82.30;;;;;;5136903;27;19927;-44
2023/06/26 11:41:47;;;;;;;;;;;24.10;89.10;;;;;;5136437;27;19913;-47
2023/06/26 11:44:15;;;;;;;;;;;24.20;87.20;;;;;;5137179;27;20014;-43
2023/06/26 11:46:40;;;;;;;;;;;24.30;83.10;;;;;;5137035;27;19908;-44
2023/06/26 11:49:06;;;;;;;;;;;24.40;80.90;;;;;;5136320;27;19914;-44
2023/06/26 11:51:32;;;;;;;;;;;24.30;81.20;;;;;;5136558;27;19938;-42
2023/06/26 11:54:01;;;;;;;;;;;24.10;81.10;;;;;;5136787;27;20282;-43
2023/06/26 11:56:26;;;;;;;;;;;24.10;83.90;;;;;;5136131;27;20273;-43
2023/06/26 11:59:02;;;;;;;;;;;24.10;87.40;;;;;;5137084;27;20388;-42
2023/06/26 12:01:35;;;;;;;;;;;24.30;87.40;;;;;;5136698;27;20354;-42
2023/06/26 12:04:03;;;;;;;;;;;24.60;84.90;;;;;;5135978;27;19914;-42
2023/06/26 12:06:33;;;;;;;;;;;24.70;86.10;;;;;;5136596;27;19907;-43
2023/06/26 12:09:00;;;;;;;;;;;24.80;86.00;;;;;;5135917;27;19914;-42
2023/06/26 12:11:26;;;;;;;;;;;24.80;81.60;;;;;;5136452;27;19952;-42
2023/06/26 12:13:52;;;;;;;;;;;24.70;78.80;;;;;;5136474;27;19920;-43
2023/06/26 12:16:18;;;;;;;;;;;24.70;79.30;;;;;;5135715;27;19907;-42
2023/06/26 12:18:43;;;;;;;;;;;24.70;80.00;;;;;;5118095;27;20352;-43
2023/06/26 12:21:27;;;;;;;;;;;24.80;79.60;;;;;;5130980;27;19958;-42
2023/06/26 12:23:57;;;;;;;;;;;24.70;82.00;;;;;;5130723;27;20010;-42
2023/06/26 12:26:23;;;;;;;;;;;24.60;79.40;;;;;;5122826;27;19916;-42
2023/06/26 12:28:49;;;;;;;;;;;24.30;79.00;;;;;;5136727;27;20456;-42
2023/06/26 12:31:15;;;;;;;;;;;24.00;80.40;;;;;;5136142;27;20010;-43
2023/06/26 12:33:42;;;;;;;;;;;24.10;82.60;;;;;;5135761;27;20354;-42
2023/06/26 12:36:14;;;;;;;;;;;24.30;84.80;;;;;;5122962;27;19912;-46
2023/06/26 12:38:44;;;;;;;;;;;24.40;81.70;;;;;;5127549;27;20019;-40
2023/06/26 12:41:16;;;;;;;;;;;24.40;82.30;;;;;;5125941;27;19934;-44
2023/06/26 12:43:42;;;;;;;;;;;24.50;79.90;;;;;;5127419;27;19915;-42
2023/06/26 12:46:08;;;;;;;;;;;24.30;76.50;;;;;;5133729;27;19914;-48
2023/06/26 12:48:43;;;;;;;;;;;24.50;79.70;;;;;;5132673;27;19911;-43
2023/06/26 12:51:15;;;;;;;;;;;24.60;75.70;;;;;;5121832;27;19908;-42
2023/06/26 12:53:41;;;;;;;;;;;24.50;78.60;;;;;;5132541;27;19927;-42
2023/06/26 12:56:07;;;;;;;;;;;24.30;78.30;;;;;;5133270;27;19972;-42
2023/06/26 12:58:36;;;;;;;;;;;24.40;79.00;;;;;;5131134;27;20648;-43
2023/06/26 13:01:14;;;;;;;;;;;24.50;79.80;;;;;;5124524;27;19922;-43
2023/06/26 13:03:40;;;;;;;;;;;24.90;72.90;;;;;;5130866;27;19915;-42
2023/06/26 13:06:05;;;;;;;;;;;24.90;70.00;;;;;;5132513;27;19911;-43
2023/06/26 13:08:31;;;;;;;;;;;25.00;72.80;;;;;;5134190;27;19915;-42
2023/06/26 13:10:56;;;;;;;;;;;25.00;68.90;;;;;;5132619;27;19919;-43
2023/06/26 13:13:22;;;;;;;;;;;24.80;69.50;;;;;;5132150;27;20400;-47
2023/06/26 13:15:47;;;;;;;;;;;24.60;71.50;;;;;;5127847;27;19912;-41
2023/06/26 13:18:13;;;;;;;;;;;24.50;71.30;;;;;;5130922;27;19907;-42
2023/06/26 13:20:38;;;;;;;;;;;24.50;71.20;;;;;;5133810;27;19912;-42
2023/06/26 13:23:04;;;;;;;;;;;24.60;73.10;;;;;;5131273;27;19911;-45
2023/06/26 13:25:29;;;;;;;;;;;24.60;73.00;;;;;;5126266;27;19915;-41
2023/06/26 13:27:55;;;;;;;;;;;24.60;74.10;;;;;;5129832;27;20010;-43
2023/06/26 13:30:21;;;;;;;;;;;25.00;74.70;;;;;;5134868;27;19915;-41
2023/06/26 13:32:46;;;;;;;;;;;25.30;75.10;;;;;;5135632;27;19915;-41
2023/06/26 13:35:12;;;;;;;;;;;25.20;73.70;;;;;;5127945;27;19916;-42
2023/06/26 13:37:37;;;;;;;;;;;24.80;74.80;;;;;;5131643;27;19915;-43
2023/06/26 13:40:03;;;;;;;;;;;24.40;76.00;;;;;;5115112;28;19954;-43
2023/06/26 13:42:29;;;;;;;;;;;24.10;77.20;;;;;;5113615;28;19976;-42
2023/06/26 13:44:55;;;;;;;;;;;23.80;78.80;;;;;;5114083;28;19907;-42
2023/06/26 13:47:21;;;;;;;;;;;23.70;79.20;;;;;;5113283;28;20382;-42
2023/06/26 13:49:46;;;;;;;;;;;24.10;82.40;;;;;;5127804;27;19911;-44
2023/06/26 13:52:12;;;;;;;;;;;24.00;80.40;;;;;;5124192;27;19916;-42
2023/06/26 13:54:43;;;;;;;;;;;24.10;78.90;;;;;;5128163;27;20019;-42
2023/06/26 13:57:09;;;;;;;;;;;24.20;78.90;;;;;;5133846;27;19912;-43
2023/06/26 13:59:36;;;;;;;;;;;24.40;78.60;;;;;;5134674;27;19914;-41
2023/06/26 14:02:02;;;;;;;;;;;24.60;78.90;;;;;;5134478;27;19912;-43
2023/06/26 14:04:27;;;;;;;;;;;24.60;78.10;;;;;;5134501;27;19919;-43
2023/06/26 14:06:53;;;;;;;;;;;24.50;78.60;;;;;;5132812;27;19912;-43
2023/06/26 14:09:18;;;;;;;;;;;24.20;78.70;;;;;;5127340;27;19911;-47
2023/06/26 14:11:44;;;;;;;;;;;24.20;81.40;;;;;;5126932;27;19918;-42